createdAt,value
2023-02-19T00:00:21.489Z,30.600000
2023-02-19T00:05:23.463Z,31.000000
2023-02-19T00:10:25.498Z,31.000000
2023-02-19T00:15:28.029Z,31.000000
2023-02-19T00:20:29.945Z,33.400000
2023-02-19T00:25:32.191Z,35.000000
2023-02-19T00:30:34.564Z,35.600000
2023-02-19T00:35:16.669Z,36.000000
2023-02-19T00:40:18.999Z,37.800000
2023-02-19T00:45:21.376Z,39.000000
2023-02-19T00:50:23.526Z,37.857143
2023-02-19T00:55:25.940Z,37.000000
2023-02-19T01:00:28.278Z,35.933333
2023-02-19T01:05:30.355Z,35.000000
2023-02-19T01:10:32.466Z,35.600000
2023-02-19T01:15:34.966Z,36.000000
2023-02-19T01:20:16.921Z,36.000000
2023-02-19T01:25:19.384Z,36.000000
2023-02-19T01:30:21.908Z,40.800000
2023-02-19T01:35:24.883Z,44.000000
2023-02-19T01:40:27.163Z,41.333333
2023-02-19T01:45:29.536Z,39.000000
2023-02-19T01:50:31.781Z,41.400000
2023-02-19T01:55:34.440Z,43.000000
2023-02-19T02:00:16.183Z,38.800000
2023-02-19T02:05:18.586Z,36.000000
2023-02-19T02:10:20.831Z,38.400000
2023-02-19T02:15:23.458Z,40.000000
2023-02-19T02:20:25.570Z,37.333333
2023-02-19T02:25:28.225Z,35.000000
2023-02-19T02:30:30.466Z,34.400000
2023-02-19T02:35:33.566Z,34.000000
2023-02-19T02:40:35.357Z,31.600000
2023-02-19T02:45:17.445Z,30.000000
2023-02-19T02:50:19.923Z,31.200000
2023-02-19T02:55:22.053Z,32.000000
2023-02-19T03:00:24.420Z,32.000000
2023-02-19T03:05:26.603Z,32.000000
2023-02-19T03:10:28.606Z,33.200000
2023-02-19T03:15:32.299Z,34.000000
2023-02-19T03:20:33.056Z,32.200000
2023-02-19T03:25:35.090Z,31.000000
2023-02-19T03:30:17.298Z,34.600000
2023-02-19T03:35:19.828Z,37.000000
2023-02-19T03:40:21.933Z,38.200000
2023-02-19T03:45:23.957Z,39.000000
2023-02-19T03:50:26.206Z,39.533333
2023-02-19T03:55:28.201Z,40.000000
2023-02-19T04:00:30.434Z,41.200000
2023-02-19T04:05:32.800Z,42.000000
2023-02-19T04:10:35.299Z,38.400000
2023-02-19T04:15:17.621Z,36.000000
2023-02-19T04:20:19.624Z,22.800000
2023-02-19T04:25:21.896Z,14.000000
2023-02-19T04:30:24.046Z,19.714286
2023-02-19T04:35:26.278Z,24.000000
2023-02-19T04:40:28.482Z,18.600000
2023-02-19T04:45:30.649Z,15.000000
2023-02-19T04:50:32.794Z,15.600000
2023-02-19T04:55:35.958Z,16.000000
2023-02-19T05:00:17.050Z,15.400000
2023-02-19T05:05:19.364Z,15.000000
2023-02-19T05:10:22.032Z,18.000000
2023-02-19T05:15:24.363Z,20.000000
2023-02-19T05:20:26.497Z,14.133333
2023-02-19T05:25:29.116Z,9.000000
2023-02-19T05:30:31.608Z,12.000000
2023-02-19T05:35:34.176Z,14.000000
2023-02-19T05:40:16.103Z,12.800000
2023-02-19T05:45:18.253Z,12.000000
2023-02-19T05:50:20.553Z,12.000000
2023-02-19T05:55:22.916Z,12.000000
2023-02-19T06:00:25.180Z,13.600000
2023-02-19T06:05:27.075Z,15.000000
2023-02-19T06:10:29.530Z,12.000000
2023-02-19T06:15:31.678Z,10.000000
2023-02-19T06:20:34.389Z,12.400000
2023-02-19T06:25:36.083Z,14.000000
2023-02-19T06:30:18.888Z,17.000000
2023-02-19T06:35:20.966Z,19.000000
2023-02-19T06:40:23.152Z,20.714286
2023-02-19T06:45:25.064Z,22.000000
2023-02-19T06:50:27.838Z,23.066667
2023-02-19T06:55:30.143Z,24.000000
2023-02-19T07:00:32.407Z,19.800000
2023-02-19T07:05:34.798Z,17.000000
2023-02-19T07:10:16.564Z,18.200000
2023-02-19T07:15:19.011Z,19.000000
2023-02-19T07:20:21.195Z,17.800000
2023-02-19T07:25:23.341Z,17.000000
2023-02-19T07:30:25.541Z,18.600000
2023-02-19T07:35:27.495Z,20.000000
2023-02-19T07:40:29.681Z,16.400000
2023-02-19T07:45:32.314Z,14.000000
2023-02-19T07:50:34.567Z,13.400000
2023-02-19T07:55:17.522Z,13.000000
2023-02-19T08:00:19.023Z,12.400000
2023-02-19T08:05:21.129Z,12.000000
2023-02-19T08:10:23.171Z,13.142857
2023-02-19T08:15:25.589Z,14.000000
2023-02-19T08:20:27.548Z,13.466667
2023-02-19T08:25:29.872Z,13.000000
2023-02-19T08:30:32.215Z,16.600000
2023-02-19T08:35:34.411Z,19.000000
2023-02-19T08:40:16.407Z,16.600000
2023-02-19T08:45:18.927Z,15.000000
2023-02-19T08:50:21.384Z,12.600000
2023-02-19T08:55:23.507Z,11.000000
2023-02-19T09:00:25.756Z,14.200000
2023-02-19T09:05:27.947Z,17.000000
2023-02-19T09:10:30.172Z,15.800000
2023-02-19T09:15:32.475Z,15.000000
2023-02-19T09:20:34.746Z,13.200000
2023-02-19T09:25:16.644Z,12.000000
2023-02-19T09:30:19.403Z,11.400000
2023-02-19T09:35:21.590Z,11.000000
2023-02-19T09:40:23.996Z,13.857143
2023-02-19T09:45:25.853Z,16.000000
2023-02-19T09:50:28.569Z,16.533333
2023-02-19T09:55:30.928Z,17.000000
2023-02-19T10:00:37.234Z,18.200000
2023-02-19T10:05:20.303Z,19.000000
2023-02-19T10:10:22.329Z,28.142857
2023-02-19T10:15:24.305Z,35.000000
2023-02-19T10:20:26.156Z,38.733333
2023-02-19T10:25:28.183Z,42.000000
2023-02-19T10:30:30.224Z,41.400000
2023-02-19T10:35:32.211Z,41.000000
2023-02-19T10:40:33.995Z,43.400000
2023-02-19T10:45:35.980Z,45.000000
2023-02-19T10:50:17.802Z,47.400000
2023-02-19T10:55:19.765Z,49.000000
2023-02-19T11:00:21.716Z,44.800000
2023-02-19T11:05:23.652Z,42.000000
2023-02-19T11:10:25.616Z,42.533333
2023-02-19T11:15:27.694Z,43.000000
2023-02-19T11:20:29.642Z,41.200000
2023-02-19T11:25:31.582Z,40.000000
2023-02-19T11:30:36.087Z,38.200000
2023-02-19T11:35:35.741Z,37.000000
2023-02-19T11:40:17.355Z,41.800000
2023-02-19T11:45:19.341Z,45.000000
2023-02-19T11:50:21.338Z,37.800000
2023-02-19T11:55:23.141Z,33.000000
2023-02-19T12:00:25.178Z,33.533333
2023-02-19T12:05:27.070Z,34.000000
2023-02-19T12:10:29.054Z,31.000000
2023-02-19T12:15:30.772Z,29.000000
2023-02-19T12:20:32.730Z,29.600000
2023-02-19T12:25:34.971Z,30.000000
2023-02-19T12:30:16.934Z,33.000000
2023-02-19T12:35:18.838Z,35.000000
2023-02-19T12:40:20.871Z,35.000000
2023-02-19T12:45:23.014Z,35.000000
2023-02-19T12:50:24.850Z,36.066667
2023-02-19T12:55:26.874Z,37.000000
2023-02-19T13:00:28.809Z,42.400000
2023-02-19T13:05:30.682Z,46.000000
2023-02-19T13:10:32.685Z,44.200000
2023-02-19T13:15:34.665Z,43.000000
2023-02-19T13:20:16.658Z,42.400000
2023-02-19T13:25:18.814Z,42.000000
2023-02-19T13:30:20.880Z,43.800000
2023-02-19T13:35:22.784Z,45.000000
2023-02-19T13:40:24.735Z,45.000000
2023-02-19T13:45:26.856Z,45.000000
2023-02-19T13:50:28.928Z,45.600000
2023-02-19T13:55:42.925Z,46.000000
2023-02-19T14:00:32.836Z,49.000000
2023-02-19T14:05:34.845Z,51.000000
2023-02-19T14:10:16.664Z,55.200000
2023-02-19T14:15:18.617Z,58.000000
2023-02-19T14:20:20.731Z,63.400000
2023-02-19T14:25:22.685Z,67.000000
2023-02-19T14:30:24.494Z,65.933333
2023-02-19T14:35:26.357Z,65.000000
2023-02-19T14:40:28.210Z,63.933333
2023-02-19T14:45:30.279Z,63.000000
2023-02-19T14:50:32.285Z,70.800000
2023-02-19T14:55:34.218Z,76.000000
2023-02-19T15:00:36.014Z,75.400000
2023-02-19T15:05:18.094Z,75.000000
2023-02-19T15:10:20.036Z,72.000000
2023-02-19T15:15:23.205Z,70.000000
2023-02-19T15:20:24.509Z,70.000000
2023-02-19T15:25:26.646Z,70.000000
2023-02-19T15:30:28.815Z,70.000000
2023-02-19T15:35:30.573Z,70.000000
2023-02-19T15:40:32.666Z,57.400000
2023-02-19T15:45:34.655Z,49.000000
2023-02-19T15:50:16.543Z,46.600000
2023-02-19T15:55:18.665Z,45.000000
2023-02-19T16:00:20.637Z,40.800000
2023-02-19T16:05:22.572Z,38.000000
2023-02-19T16:10:24.332Z,33.200000
2023-02-19T16:15:26.420Z,29.000000
2023-02-19T16:20:28.531Z,29.533333
2023-02-19T16:25:30.308Z,30.000000
2023-02-19T16:30:32.350Z,30.000000
2023-02-19T16:35:34.127Z,30.000000
2023-02-19T16:40:16.833Z,31.200000
2023-02-19T16:45:18.148Z,32.000000
2023-02-19T16:50:20.252Z,30.200000
2023-02-19T16:55:22.699Z,29.000000
2023-02-19T17:00:24.605Z,30.600000
2023-02-19T17:05:26.624Z,32.000000
2023-02-19T17:10:28.456Z,27.200000
2023-02-19T17:15:30.354Z,23.000000
2023-02-19T17:20:32.384Z,22.400000
2023-02-19T17:25:34.414Z,22.000000
2023-02-19T17:30:16.183Z,20.800000
2023-02-19T17:35:18.182Z,20.000000
2023-02-19T17:40:31.793Z,19.400000
2023-02-19T17:45:22.057Z,19.000000
2023-02-19T17:50:23.950Z,21.285714
2023-02-19T17:55:25.867Z,23.000000
2023-02-19T18:00:28.065Z,21.933333
2023-02-19T18:05:29.986Z,21.000000
2023-02-19T18:10:31.891Z,19.200000
2023-02-19T18:15:34.200Z,18.000000
2023-02-19T18:20:16.153Z,13.800000
2023-02-19T18:25:18.115Z,11.000000
2023-02-19T18:30:20.394Z,8.600000
2023-02-19T18:35:34.948Z,7.000000
2023-02-19T18:40:24.333Z,9.666667
2023-02-19T18:45:26.382Z,12.000000
2023-02-19T18:50:28.382Z,12.533333
2023-02-19T18:55:30.279Z,13.000000
2023-02-19T19:00:32.328Z,10.600000
2023-02-19T19:05:34.360Z,9.000000
2023-02-19T19:10:16.187Z,9.000000
2023-02-19T19:15:19.177Z,9.000000
2023-02-19T19:20:20.769Z,8.400000
2023-02-19T19:25:23.156Z,8.000000
2023-02-19T19:30:25.456Z,8.000000
2023-02-19T19:35:27.223Z,8.000000
2023-02-19T19:40:29.123Z,6.800000
2023-02-19T19:45:31.242Z,6.000000
2023-02-19T19:50:45.065Z,6.600000
2023-02-19T19:55:35.030Z,7.000000
2023-02-19T20:00:16.964Z,7.600000
2023-02-19T20:05:18.862Z,8.000000
2023-02-19T20:10:20.750Z,7.400000
2023-02-19T20:15:22.568Z,7.000000
2023-02-19T20:20:24.711Z,7.000000
2023-02-19T20:25:26.599Z,7.000000
2023-02-19T20:30:28.575Z,7.000000
2023-02-19T20:35:30.396Z,7.000000
2023-02-19T20:40:32.299Z,7.000000
2023-02-19T20:45:34.175Z,7.000000
2023-02-19T20:50:15.996Z,7.600000
2023-02-19T20:55:18.062Z,8.000000
2023-02-19T21:00:20.320Z,8.600000
2023-02-19T21:05:22.333Z,9.000000
2023-02-19T21:10:24.487Z,8.466667
2023-02-19T21:15:26.311Z,8.000000
2023-02-19T21:20:28.237Z,6.933333
2023-02-19T21:25:30.407Z,6.000000
2023-02-19T21:30:32.380Z,6.600000
2023-02-19T21:35:34.022Z,7.000000
2023-02-19T21:40:36.294Z,6.400000
2023-02-19T21:45:17.581Z,6.000000
2023-02-19T21:50:19.302Z,6.600000
2023-02-19T21:55:21.335Z,7.000000
2023-02-19T22:00:23.179Z,7.000000
2023-02-19T22:05:25.040Z,7.000000
2023-02-19T22:10:26.837Z,6.466667
2023-02-19T22:15:28.777Z,6.000000
2023-02-19T22:20:30.773Z,6.600000
2023-02-19T22:25:32.934Z,7.000000
2023-02-19T22:30:34.865Z,7.000000
2023-02-19T22:35:16.789Z,7.000000
2023-02-19T22:40:19.105Z,7.000000
2023-02-19T22:45:21.704Z,7.000000
2023-02-19T22:50:23.842Z,6.428571
2023-02-19T22:55:25.968Z,6.000000
2023-02-19T23:00:27.999Z,6.000000
2023-02-19T23:05:30.338Z,6.000000
2023-02-19T23:10:32.808Z,6.000000
2023-02-19T23:15:34.936Z,6.000000
2023-02-19T23:20:16.691Z,6.600000
2023-02-19T23:25:18.903Z,7.000000
2023-02-19T23:30:20.847Z,6.400000
2023-02-19T23:35:22.476Z,6.000000
2023-02-19T23:40:24.413Z,7.066667
2023-02-19T23:45:26.272Z,8.000000
2023-02-19T23:50:28.225Z,6.933333
2023-02-19T23:55:30.176Z,6.000000
